Time;durP1;ratioP1;P1;durP2;ratioP2;P2;SDS_P1;SDS_P2;PMS_P1;PMS_P2;Temp;Humidity;BMP_temperature;BMP_pressure;BME280_temperature;BME280_humidity;BME280_pressure;Samples;Min_cycle;Max_cycle;Signal;HPM_P1;HPM_P2
2022/05/04 00:00:52;;;;;;;0.10;0.10;;;11.10;99.90;;;;;;5031978;28;20218;-69
2022/05/04 00:03:21;;;;;;;0.10;0.10;;;11.10;99.90;;;;;;5009077;28;20303;-69
2022/05/04 00:05:48;;;;;;;0.10;0.10;;;11.10;99.90;;;;;;5017913;28;20196;-69
2022/05/04 00:08:15;;;;;;;0.00;0.00;;;11.10;99.90;;;;;;5032940;28;20282;-69
2022/05/04 00:10:42;;;;;;;0.03;0.03;;;11.10;99.90;;;;;;5023344;28;20224;-69
2022/05/04 00:13:11;;;;;;;0.10;0.10;;;11.20;99.90;;;;;;5019157;28;20203;-69
2022/05/04 00:15:38;;;;;;;0.10;0.10;;;11.20;99.90;;;;;;5009742;28;20228;-70
2022/05/04 00:18:05;;;;;;;0.00;0.00;;;11.20;99.90;;;;;;5017471;28;20282;-70
2022/05/04 00:20:32;;;;;;;0.10;0.10;;;11.20;99.90;;;;;;5034102;28;20208;-69
2022/05/04 00:22:59;;;;;;;0.10;0.10;;;11.20;99.90;;;;;;5031840;28;20261;-69
2022/05/04 00:25:26;;;;;;;0.10;0.10;;;11.20;99.90;;;;;;5009061;28;20250;-69
2022/05/04 00:27:53;;;;;;;0.00;0.00;;;11.20;99.90;;;;;;5010878;28;20232;-68
2022/05/04 00:30:22;;;;;;;0.00;0.00;;;11.20;99.90;;;;;;5026662;28;20212;-69
2022/05/04 00:32:48;;;;;;;0.10;0.10;;;11.20;99.90;;;;;;5032123;28;20257;-68
2022/05/04 00:35:15;;;;;;;0.00;0.00;;;11.20;99.90;;;;;;5016118;28;20322;-68
2022/05/04 00:37:42;;;;;;;0.10;0.10;;;11.20;99.90;;;;;;5015648;28;20261;-69
2022/05/04 00:40:10;;;;;;;0.07;0.07;;;11.20;99.90;;;;;;5017235;28;20208;-69
2022/05/04 00:42:37;;;;;;;0.10;0.10;;;11.20;99.90;;;;;;5031659;28;20234;-70
2022/05/04 00:45:05;;;;;;;0.10;0.10;;;11.20;99.90;;;;;;5012841;28;20203;-69
2022/05/04 00:47:33;;;;;;;0.10;0.10;;;11.10;99.90;;;;;;5014709;28;20204;-69
2022/05/04 00:50:04;;;;;;;0.10;0.10;;;11.10;99.90;;;;;;5017800;28;20257;-68
2022/05/04 00:52:31;;;;;;;0.10;0.10;;;11.00;99.90;;;;;;5023102;28;20219;-69
2022/05/04 00:54:59;;;;;;;0.10;0.10;;;11.00;99.90;;;;;;5010887;28;20226;-69
2022/05/04 01:00:09;;;;;;;0.10;0.10;;;10.90;99.90;;;;;;5028130;28;20208;-69
2022/05/04 01:02:38;;;;;;;0.10;0.10;;;10.90;99.90;;;;;;5027163;28;20237;-69
2022/05/04 01:05:09;;;;;;;0.00;0.00;;;10.80;99.90;;;;;;5030855;28;20199;-69
2022/05/04 01:07:36;;;;;;;0.10;0.10;;;;;;;;;;5008178;28;20208;-69
2022/05/04 01:10:04;;;;;;;0.10;0.10;;;;;;;;;;5038423;28;20196;-69
2022/05/04 01:12:31;;;;;;;0.10;0.10;;;;;;;;;;5014212;28;20215;-69
2022/05/04 01:14:58;;;;;;;0.10;0.10;;;10.80;99.90;;;;;;5024258;28;20207;-69
2022/05/04 01:17:26;;;;;;;0.10;0.10;;;10.60;99.90;;;;;;5034251;28;20200;-69
2022/05/04 01:19:56;;;;;;;0.10;0.10;;;;;;;;;;5014091;28;20230;-68
2022/05/04 01:22:25;;;;;;;0.10;0.10;;;10.60;99.90;;;;;;5016115;28;20243;-68
2022/05/04 01:24:52;;;;;;;0.10;0.10;;;;;;;;;;5013970;28;20287;-68
2022/05/04 01:27:19;;;;;;;0.10;0.10;;;;;;;;;;5011796;28;20212;-69
2022/05/04 01:29:47;;;;;;;0.10;0.10;;;10.40;99.90;;;;;;5009984;28;20208;-68
2022/05/04 01:32:14;;;;;;;0.10;0.10;;;10.30;99.90;;;;;;5012161;28;20216;-68
2022/05/04 01:34:41;;;;;;;0.10;0.10;;;;;;;;;;5009987;28;20683;-69
2022/05/04 01:37:09;;;;;;;0.10;0.10;;;;;;;;;;5010967;28;20224;-69
2022/05/04 01:39:37;;;;;;;0.10;0.10;;;10.30;99.90;;;;;;5017717;28;20196;-69
2022/05/04 01:42:09;;;;;;;0.10;0.10;;;10.20;99.90;;;;;;5013236;28;20320;-69
2022/05/04 01:44:36;;;;;;;0.10;0.10;;;10.20;99.90;;;;;;5016476;28;20203;-69
2022/05/04 01:47:03;;;;;;;0.10;0.10;;;10.20;99.90;;;;;;5012154;28;20200;-69
2022/05/04 01:49:30;;;;;;;0.10;0.10;;;;;;;;;;5017244;28;20195;-68
2022/05/04 01:51:57;;;;;;;0.10;0.10;;;;;;;;;;5009430;28;20251;-69
2022/05/04 01:54:25;;;;;;;0.10;0.10;;;;;;;;;;5011245;28;20211;-68
2022/05/04 01:56:53;;;;;;;0.17;0.17;;;;;;;;;;5015592;28;20298;-69
2022/05/04 01:59:21;;;;;;;0.10;0.10;;;;;;;;;;5010405;28;20208;-68
2022/05/04 02:01:48;;;;;;;0.10;0.10;;;;;;;;;;5016468;23;20240;-68
2022/05/04 02:04:15;;;;;;;0.10;0.10;;;;;;;;;;5006166;28;20269;-68
2022/05/04 02:06:43;;;;;;;0.10;0.10;;;;;;;;;;5022967;28;20207;-69
2022/05/04 02:09:10;;;;;;;0.10;0.10;;;;;;;;;;5023586;28;20266;-67
2022/05/04 02:11:38;;;;;;;0.10;0.10;;;;;;;;;;5000195;28;20235;-67
2022/05/04 02:14:07;;;;;;;0.10;0.10;;;9.90;99.90;;;;;;5004260;28;20200;-66
2022/05/04 02:16:34;;;;;;;0.10;0.10;;;9.80;99.90;;;;;;5003758;28;20212;-67
2022/05/04 02:19:01;;;;;;;0.10;0.10;;;9.70;99.90;;;;;;5005604;28;20236;-68
2022/05/04 02:21:28;;;;;;;0.10;0.10;;;9.60;99.90;;;;;;5002610;28;20221;-67
2022/05/04 02:23:55;;;;;;;0.10;0.10;;;9.60;99.90;;;;;;5005699;28;20205;-67
2022/05/04 02:26:22;;;;;;;0.10;0.10;;;;;;;;;;5003534;28;20204;-67
2022/05/04 02:28:50;;;;;;;0.10;0.10;;;;;;;;;;5004903;28;20236;-68
2022/05/04 02:31:18;;;;;;;0.10;0.10;;;;;;;;;;5009894;28;20663;-68
2022/05/04 02:33:47;;;;;;;0.10;0.10;;;;;;;;;;5005650;28;20607;-68
2022/05/04 02:39:00;;;;;;;0.10;0.10;;;;;;;;;;5005108;28;20717;-68
2022/05/04 02:41:27;;;;;;;0.10;0.10;;;;;;;;;;4987000;28;20662;-67
2022/05/04 02:43:54;;;;;;;0.10;0.10;;;;;;;;;;5004558;28;20228;-68
2022/05/04 02:46:24;;;;;;;0.10;0.10;;;;;;;;;;4987102;28;20627;-70
2022/05/04 02:48:51;;;;;;;0.10;0.10;;;;;;;;;;4985622;28;20612;-70
2022/05/04 02:51:18;;;;;;;0.10;0.10;;;;;;;;;;5005461;28;20227;-70
2022/05/04 02:53:46;;;;;;;0.10;0.10;;;;;;;;;;5005253;28;21230;-70
2022/05/04 02:56:15;;;;;;;0.10;0.10;;;;;;;;;;5004980;28;20662;-70
2022/05/04 02:58:43;;;;;;;0.10;0.10;;;;;;;;;;5004210;28;20711;-70
2022/05/04 03:03:53;;;;;;;0.10;0.10;;;;;;;;;;4999643;28;20620;-70
2022/05/04 03:06:20;;;;;;;0.10;0.10;;;;;;;;;;5004360;28;20607;-70
2022/05/04 03:08:47;;;;;;;0.10;0.10;;;;;;;;;;5005840;28;20619;-69
2022/05/04 03:14:00;;;;;;;0.10;0.10;;;;;;;;;;5007640;28;20837;-70
2022/05/04 03:16:27;;;;;;;0.10;0.10;;;;;;;;;;5006671;28;20647;-70
2022/05/04 03:18:56;;;;;;;0.10;0.10;;;;;;;;;;5008031;28;20674;-70
2022/05/04 03:21:23;;;;;;;0.10;0.10;;;;;;;;;;5008266;28;20666;-71
2022/05/04 03:23:50;;;;;;;0.10;0.10;;;;;;;;;;5006794;28;20988;-69
2022/05/04 03:26:18;;;;;;;0.10;0.10;;;;;;;;;;4991095;28;20637;-70
2022/05/04 03:28:46;;;;;;;0.10;0.10;;;;;;;;;;5007160;28;20620;-69
2022/05/04 03:31:14;;;;;;;0.10;0.10;;;;;;;;;;4992940;28;20659;-70
2022/05/04 03:33:41;;;;;;;0.10;0.10;;;;;;;;;;4990099;28;20627;-69
2022/05/04 03:36:09;;;;;;;0.10;0.10;;;;;;;;;;5006372;28;20651;-70
2022/05/04 03:38:37;;;;;;;0.10;0.10;;;;;;;;;;5007233;28;20607;-70
2022/05/04 03:41:04;;;;;;;0.10;0.10;;;;;;;;;;4992269;28;20687;-71
2022/05/04 03:43:31;;;;;;;0.10;0.10;;;;;;;;;;5008292;28;20623;-70
2022/05/04 03:46:12;;;;;;;0.10;0.10;;;;;;;;;;4990675;28;20634;-69
2022/05/04 03:48:39;;;;;;;0.10;0.10;;;;;;;;;;5007786;28;20646;-71
2022/05/04 03:51:06;;;;;;;0.10;0.10;;;;;;;;;;4990182;28;20741;-70
2022/05/04 03:53:35;;;;;;;0.10;0.10;;;;;;;;;;5007525;28;20630;-70
2022/05/04 03:56:02;;;;;;;0.10;0.10;;;;;;;;;;5007373;28;20712;-68
2022/05/04 03:58:29;;;;;;;0.10;0.10;;;;;;;;;;5005767;28;20630;-69
2022/05/04 04:00:56;;;;;;;0.10;0.10;;;;;;;;;;5007004;28;20615;-69
2022/05/04 04:03:24;;;;;;;0.10;0.10;;;;;;;;;;4982561;28;20650;-73
2022/05/04 04:05:51;;;;;;;0.10;0.10;;;;;;;;;;4988829;28;20623;-70
2022/05/04 04:08:18;;;;;;;0.10;0.10;;;;;;;;;;4991278;28;20639;-71
2022/05/04 04:10:47;;;;;;;0.10;0.10;;;;;;;;;;5007236;28;20667;-71
2022/05/04 04:13:15;;;;;;;0.10;0.10;;;;;;;;;;5004928;28;20687;-71
2022/05/04 04:15:42;;;;;;;0.10;0.10;;;;;;;;;;4990469;28;20616;-71
2022/05/04 04:18:09;;;;;;;0.10;0.10;;;;;;;;;;4989752;28;20639;-71
2022/05/04 04:23:21;;;;;;;0.10;0.10;;;;;;;;;;5006342;28;20622;-71
2022/05/04 04:25:50;;;;;;;0.10;0.10;;;;;;;;;;5008426;28;20618;-71
2022/05/04 04:28:17;;;;;;;0.10;0.10;;;;;;;;;;4992028;28;20629;-70
2022/05/04 04:30:44;;;;;;;0.10;0.10;;;;;;;;;;4995184;28;20762;-70
2022/05/04 04:33:12;;;;;;;0.10;0.10;;;;;;;;;;4988989;28;20973;-70
2022/05/04 04:35:39;;;;;;;0.10;0.10;;;;;;;;;;5006364;28;20709;-70
2022/05/04 04:38:07;;;;;;;0.20;0.20;;;;;;;;;;4990656;28;21277;-71
2022/05/04 04:40:34;;;;;;;0.10;0.10;;;;;;;;;;5007782;28;20668;-70
2022/05/04 04:43:03;;;;;;;0.10;0.10;;;;;;;;;;5002743;28;21056;-70
2022/05/04 04:45:31;;;;;;;0.10;0.10;;;;;;;;;;5005562;28;20619;-70
2022/05/04 04:47:58;;;;;;;0.17;0.17;;;;;;;;;;5005486;28;20623;-70
2022/05/04 04:50:25;;;;;;;0.10;0.10;;;;;;;;;;4994556;28;20686;-70
2022/05/04 04:52:53;;;;;;;0.10;0.10;;;;;;;;;;5006170;28;20647;-70
2022/05/04 04:55:20;;;;;;;0.10;0.10;;;;;;;;;;4986863;28;20621;-71
2022/05/04 04:57:47;;;;;;;0.10;0.10;;;;;;;;;;5006125;28;20699;-71
2022/05/04 05:00:17;;;;;;;0.10;0.10;;;;;;;;;;5005157;28;20657;-70
2022/05/04 05:02:44;;;;;;;0.10;0.10;;;;;;;;;;4984527;28;20662;-70
2022/05/04 05:05:12;;;;;;;0.10;0.10;;;;;;;;;;4988902;28;20627;-71
2022/05/04 05:07:39;;;;;;;0.13;0.13;;;;;;;;;;5004343;28;20698;-70
2022/05/04 05:10:07;;;;;;;0.10;0.10;;;;;;;;;;4988458;28;21305;-71
2022/05/04 05:12:34;;;;;;;0.10;0.10;;;;;;;;;;5005483;28;20911;-70
2022/05/04 05:17:49;;;;;;;0.10;0.10;;;;;;;;;;4987287;28;20686;-71
2022/05/04 05:20:16;;;;;;;0.10;0.10;;;;;;;;;;5003743;28;20717;-70
2022/05/04 05:22:43;;;;;;;0.10;0.10;;;;;;;;;;5005304;28;20758;-71
2022/05/04 05:25:11;;;;;;;0.20;0.20;;;;;;;;;;4989233;28;20637;-70
2022/05/04 05:27:38;;;;;;;0.10;0.10;;;;;;;;;;5004603;28;20631;-70
2022/05/04 05:30:06;;;;;;;0.10;0.10;;;;;;;;;;4991496;28;20627;-70
2022/05/04 05:32:34;;;;;;;0.10;0.10;;;;;;;;;;5004494;28;20670;-71
2022/05/04 05:35:02;;;;;;;0.10;0.10;;;;;;;;;;4988384;28;20719;-70
2022/05/04 05:37:29;;;;;;;0.10;0.10;;;;;;;;;;5005567;28;20691;-71
2022/05/04 05:39:57;;;;;;;0.10;0.10;;;;;;;;;;4988394;28;20647;-71
2022/05/04 05:42:24;;;;;;;0.10;0.10;;;;;;;;;;5005467;28;20236;-70
2022/05/04 05:44:51;;;;;;;0.10;0.10;;;;;;;;;;4987647;28;20627;-71
2022/05/04 05:47:19;;;;;;;0.10;0.10;;;;;;;;;;4986997;28;20630;-71
2022/05/04 05:49:46;;;;;;;0.10;0.10;;;;;;;;;;5005403;28;20211;-70
2022/05/04 05:52:14;;;;;;;0.10;0.10;;;;;;;;;;4988155;28;20216;-70
2022/05/04 05:54:42;;;;;;;0.10;0.10;;;;;;;;;;5003835;28;20665;-70
2022/05/04 05:57:09;;;;;;;0.10;0.10;;;;;;;;;;5006610;28;20279;-70
2022/05/04 05:59:36;;;;;;;0.10;0.10;;;;;;;;;;5005487;28;20216;-70
2022/05/04 06:02:04;;;;;;;0.10;0.10;;;;;;;;;;4981946;28;20233;-71
2022/05/04 06:04:31;;;;;;;0.10;0.10;;;;;;;;;;5005435;28;20279;-70
2022/05/04 06:06:59;;;;;;;0.10;0.10;;;;;;;;;;5004620;28;20200;-69
2022/05/04 06:09:27;;;;;;;0.10;0.10;;;;;;;;;;5004192;28;20201;-70
2022/05/04 06:11:54;;;;;;;0.10;0.10;;;;;;;;;;5004497;28;20213;-69
2022/05/04 06:14:21;;;;;;;0.10;0.10;;;;;;;;;;4986398;28;20251;-70
2022/05/04 06:16:49;;;;;;;0.10;0.10;;;;;;;;;;5005444;28;20228;-71
2022/05/04 06:19:17;;;;;;;0.10;0.10;;;;;;;;;;5004154;28;20228;-70
2022/05/04 06:21:44;;;;;;;0.10;0.10;;;;;;;;;;4986928;28;20208;-70
2022/05/04 06:24:11;;;;;;;0.10;0.10;;;;;;;;;;5005617;28;20228;-71
2022/05/04 06:26:40;;;;;;;0.10;0.10;;;;;;;;;;4987117;28;20211;-70
2022/05/04 06:29:07;;;;;;;0.10;0.10;;;;;;;;;;4986586;28;20213;-70
2022/05/04 06:34:19;;;;;;;0.10;0.10;;;;;;;;;;5003958;28;20250;-70
2022/05/04 06:36:46;;;;;;;0.10;0.10;;;;;;;;;;5005099;28;20231;-70
2022/05/04 06:39:15;;;;;;;0.10;0.10;;;;;;;;;;4987378;28;20212;-70
2022/05/04 06:41:44;;;;;;;0.10;0.10;;;;;;;;;;4986769;28;20630;-71
2022/05/04 06:44:11;;;;;;;0.10;0.10;;;;;;;;;;4998209;28;20217;-69
2022/05/04 06:46:40;;;;;;;0.10;0.10;;;;;;;;;;5009161;28;20207;-70
2022/05/04 06:49:08;;;;;;;0.00;0.00;;;;;;;;;;5008047;28;20216;-69
2022/05/04 06:51:35;;;;;;;0.10;0.10;;;;;;;;;;5007405;28;20298;-70
2022/05/04 06:54:02;;;;;;;0.10;0.10;;;;;;;;;;4987306;28;20201;-70
2022/05/04 06:56:30;;;;;;;0.10;0.10;;;;;;;;;;5007555;28;20205;-70
2022/05/04 06:58:58;;;;;;;0.10;0.10;;;;;;;;;;5008121;28;20263;-70
2022/05/04 07:01:27;;;;;;;0.10;0.10;;;;;;;;;;4988932;28;20751;-70
2022/05/04 07:03:55;;;;;;;0.10;0.10;;;8.80;99.90;;;;;;5005492;28;20203;-70
2022/05/04 07:06:22;;;;;;;0.10;0.10;;;;;;;;;;5007633;28;20230;-71
2022/05/04 07:08:49;;;;;;;0.10;0.10;;;;;;;;;;4991689;28;20204;-70
2022/05/04 07:11:16;;;;;;;0.10;0.10;;;;;;;;;;5008396;28;20271;-70
2022/05/04 07:13:43;;;;;;;0.00;0.00;;;;;;;;;;5007505;28;20216;-71
2022/05/04 07:16:12;;;;;;;0.00;0.00;;;;;;;;;;5008574;28;20200;-71
2022/05/04 07:18:40;;;;;;;0.00;0.00;;;;;;;;;;5002119;28;20262;-69
2022/05/04 07:21:07;;;;;;;0.00;0.00;;;;;;;;;;4987866;28;20274;-71
2022/05/04 07:23:34;;;;;;;0.00;0.00;;;;;;;;;;4991345;28;20280;-70
2022/05/04 07:26:01;;;;;;;0.00;0.00;;;;;;;;;;5007544;28;20205;-71
2022/05/04 07:28:29;;;;;;;0.00;0.00;;;;;;;;;;5007472;28;20188;-71
2022/05/04 07:30:56;;;;;;;0.10;0.10;;;;;;;;;;4994350;28;20201;-69
2022/05/04 07:33:24;;;;;;;0.10;0.10;;;;;;;;;;5006410;28;20256;-70
2022/05/04 07:35:52;;;;;;;0.00;0.00;;;;;;;;;;5008927;28;20200;-71
2022/05/04 07:38:19;;;;;;;0.00;0.00;;;;;;;;;;4990597;28;20321;-70
2022/05/04 07:43:31;;;;;;;0.00;0.00;;;;;;;;;;5006153;28;20200;-70
2022/05/04 07:45:58;;;;;;;0.00;0.00;;;;;;;;;;4990887;28;20200;-70
2022/05/04 07:48:27;;;;;;;0.00;0.00;;;14.50;99.90;;;;;;5005236;28;20217;-70
2022/05/04 07:50:54;;;;;;;0.00;0.00;;;15.70;99.90;;;;;;4989507;28;20231;-71
2022/05/04 07:53:21;;;;;;;0.00;0.00;;;15.80;99.90;;;;;;5006739;28;20209;-70
2022/05/04 07:55:48;;;;;;;0.00;0.00;;;15.90;99.90;;;;;;4990814;28;20207;-70
2022/05/04 07:58:15;;;;;;;0.00;0.00;;;;;;;;;;5006460;28;20286;-70
2022/05/04 08:06:14;;;;;;;0.00;0.00;;;;;;;;;;5011821;28;20199;-69
2022/05/04 08:08:41;;;;;;;0.00;0.00;;;15.90;99.90;;;;;;5016597;28;20192;-69
2022/05/04 08:11:08;;;;;;;0.00;0.00;;;16.10;99.90;;;;;;5009731;28;20273;-68
2022/05/04 08:13:35;;;;;;;0.00;0.00;;;16.30;99.90;;;;;;5007187;28;20217;-69
2022/05/04 08:16:02;;;;;;;0.10;0.10;;;16.30;99.90;;;;;;4990592;28;20212;-70
2022/05/04 08:18:30;;;;;;;0.00;0.00;;;16.50;99.90;;;;;;4990010;28;20243;-69
2022/05/04 08:20:58;;;;;;;0.00;0.00;;;16.40;99.90;;;;;;4995515;28;20200;-71
2022/05/04 08:23:25;;;;;;;0.00;0.00;;;;;;;;;;5006466;28;20287;-70
2022/05/04 08:25:52;;;;;;;0.00;0.00;;;;;;;;;;4991246;28;20263;-69
2022/05/04 08:28:19;;;;;;;0.00;0.00;;;;;;;;;;4990309;28;20662;-69
2022/05/04 08:30:46;;;;;;;0.00;0.00;;;;;;;;;;4992280;28;20218;-69
2022/05/04 08:33:14;;;;;;;0.00;0.00;;;;;;;;;;4988949;28;20224;-68
2022/05/04 08:35:42;;;;;;;0.00;0.00;;;;;;;;;;4989212;28;20328;-68
2022/05/04 08:38:10;;;;;;;0.00;0.00;;;;;;;;;;5007356;28;20228;-68
2022/05/04 08:40:38;;;;;;;0.00;0.00;;;;;;;;;;4996171;28;20279;-69
2022/05/04 08:43:07;;;;;;;0.00;0.00;;;;;;;;;;4989772;28;20775;-69
2022/05/04 08:45:37;;;;;;;0.00;0.00;;;;;;;;;;4995003;28;20279;-69
2022/05/04 08:48:05;;;;;;;0.00;0.00;;;;;;;;;;4989425;28;20247;-69
2022/05/04 08:50:32;;;;;;;0.00;0.00;;;;;;;;;;4993458;28;20205;-69
2022/05/04 08:53:02;;;;;;;0.00;0.00;;;16.70;99.90;;;;;;4993478;28;20312;-69
2022/05/04 08:55:30;;;;;;;0.00;0.00;;;17.70;99.90;;;;;;5001563;28;20213;-69
2022/05/04 08:57:57;;;;;;;0.00;0.00;;;17.90;99.90;;;;;;4989275;28;20221;-69
2022/05/04 09:00:25;;;;;;;0.00;0.00;;;17.90;99.90;;;;;;4990139;28;20200;-69
2022/05/04 09:02:52;;;;;;;0.00;0.00;;;18.20;99.90;;;;;;4983171;28;20282;-69
2022/05/04 09:05:22;;;;;;;0.00;0.00;;;18.40;99.90;;;;;;4989165;28;20665;-69
2022/05/04 09:07:51;;;;;;;0.00;0.00;;;18.60;99.90;;;;;;4988926;28;20224;-70
2022/05/04 09:10:21;;;;;;;0.00;0.00;;;18.80;99.90;;;;;;4989028;28;20215;-69
2022/05/04 09:12:50;;;;;;;0.00;0.00;;;18.70;99.90;;;;;;4992508;28;20230;-70
2022/05/04 09:15:20;;;;;;;0.00;0.00;;;18.70;99.90;;;;;;4989536;28;20208;-70
2022/05/04 09:17:47;;;;;;;0.00;0.00;;;18.50;99.90;;;;;;4988657;28;20275;-70
2022/05/04 09:22:58;;;;;;;0.00;0.00;;;18.30;99.90;;;;;;5004559;28;20262;-70
2022/05/04 09:25:26;;;;;;;0.00;0.00;;;18.20;99.90;;;;;;5006549;28;20235;-69
2022/05/04 09:27:53;;;;;;;0.00;0.00;;;18.00;99.90;;;;;;4989367;28;20223;-69
2022/05/04 09:30:25;;;;;;;0.00;0.00;;;18.10;99.90;;;;;;4989005;28;20208;-71
2022/05/04 09:32:53;;;;;;;0.00;0.00;;;18.20;99.90;;;;;;4990024;28;20235;-70
2022/05/04 09:35:20;;;;;;;0.00;0.00;;;18.40;99.90;;;;;;4989568;28;20205;-69
2022/05/04 09:46:07;;;;;;;0.00;0.00;;;19.10;99.90;;;;;;5003891;28;20220;-69
2022/05/04 09:48:35;;;;;;;0.00;0.00;;;19.30;99.90;;;;;;4988139;28;20280;-70
2022/05/04 09:51:04;;;;;;;0.00;0.00;;;19.20;99.90;;;;;;5006456;28;20211;-70
2022/05/04 09:53:31;;;;;;;0.00;0.00;;;19.40;99.90;;;;;;4988202;28;20220;-69
2022/05/04 09:56:01;;;;;;;0.00;0.00;;;19.20;99.90;;;;;;4992219;28;20712;-71
2022/05/04 09:58:29;;;;;;;0.00;0.00;;;18.90;99.90;;;;;;5003742;28;20304;-69
2022/05/04 10:00:57;;;;;;;0.00;0.00;;;18.40;99.90;;;;;;4987679;28;20212;-69
2022/05/04 10:03:25;;;;;;;0.00;0.00;;;18.30;99.90;;;;;;4991089;28;20232;-70
2022/05/04 10:05:53;;;;;;;0.00;0.00;;;18.00;99.90;;;;;;5006540;28;20211;-69
2022/05/04 10:08:21;;;;;;;0.00;0.00;;;17.90;99.90;;;;;;4996670;28;20197;-68
2022/05/04 10:10:49;;;;;;;0.00;0.00;;;18.00;99.90;;;;;;5006263;28;20204;-68
2022/05/04 10:13:19;;;;;;;0.20;0.00;;;18.10;99.90;;;;;;4996329;28;20252;-67
2022/05/04 10:15:51;;;;;;;0.00;0.00;;;18.10;99.90;;;;;;4993411;28;20231;-68
2022/05/04 10:18:24;;;;;;;0.00;0.00;;;18.10;99.90;;;;;;5005697;28;20240;-69
2022/05/04 10:21:01;;;;;;;0.00;0.00;;;18.10;99.90;;;;;;5010116;28;20731;-68
2022/05/04 10:23:31;;;;;;;0.00;0.00;;;18.00;99.90;;;;;;5008058;28;20306;-69
2022/05/04 10:25:59;;;;;;;0.00;0.00;;;18.00;99.90;;;;;;4990913;28;20203;-69
2022/05/04 10:28:27;;;;;;;0.00;0.00;;;17.80;99.90;;;;;;4992028;28;20291;-69
2022/05/04 10:30:55;;;;;;;0.00;0.00;;;17.80;99.90;;;;;;4992491;28;20575;-69
2022/05/04 10:33:25;;;;;;;0.00;0.00;;;17.90;99.90;;;;;;5009832;28;20216;-70
2022/05/04 10:35:53;;;;;;;0.00;0.00;;;18.20;99.90;;;;;;4997531;28;20670;-69
2022/05/04 10:38:30;;;;;;;0.00;0.00;;;18.30;99.90;;;;;;4992152;28;20250;-71
2022/05/04 10:40:58;;;;;;;0.00;0.00;;;18.40;99.90;;;;;;5010381;28;20247;-69
2022/05/04 10:43:37;;;;;;;0.00;0.00;;;18.30;99.90;;;;;;5009860;28;20224;-70
2022/05/04 10:46:07;;;;;;;0.00;0.00;;;18.50;99.90;;;;;;5012127;28;20223;-68
2022/05/04 10:48:34;;;;;;;0.00;0.00;;;18.50;99.90;;;;;;4992541;28;20284;-69
2022/05/04 10:51:10;;;;;;;0.00;0.00;;;18.60;99.90;;;;;;5009764;28;20204;-70
2022/05/04 10:53:43;;;;;;;0.00;0.00;;;18.50;99.90;;;;;;5010333;28;20224;-69
2022/05/04 10:56:13;;;;;;;0.00;0.00;;;18.60;99.90;;;;;;4997242;28;20204;-69
2022/05/04 10:58:46;;;;;;;0.00;0.00;;;18.70;99.90;;;;;;4992097;28;20307;-68
2022/05/04 11:01:20;;;;;;;0.00;0.00;;;18.60;99.90;;;;;;5009345;28;20204;-69
2022/05/04 11:04:06;;;;;;;0.00;0.00;;;18.60;99.90;;;;;;4989755;28;20692;-69
2022/05/04 11:06:34;;;;;;;0.00;0.00;;;18.80;99.90;;;;;;4996627;28;20274;-69
2022/05/04 11:09:07;;;;;;;0.00;0.00;;;18.90;99.90;;;;;;5009650;28;20207;-68
2022/05/04 11:11:34;;;;;;;0.00;0.00;;;19.00;99.90;;;;;;4990267;28;20220;-70
2022/05/04 11:14:04;;;;;;;0.00;0.00;;;19.10;99.90;;;;;;4993033;28;20819;-69
2022/05/04 11:16:31;;;;;;;0.00;0.00;;;18.90;99.90;;;;;;4990815;28;20189;-69
2022/05/04 11:19:00;;;;;;;0.00;0.00;;;19.00;99.90;;;;;;5006697;28;20223;-70
2022/05/04 11:21:28;;;;;;;0.00;0.00;;;19.20;99.90;;;;;;5005344;28;20277;-70
2022/05/04 11:23:57;;;;;;;0.00;0.00;;;19.30;99.90;;;;;;5007581;28;20251;-70
2022/05/04 11:26:25;;;;;;;0.00;0.00;;;19.40;99.90;;;;;;4991203;28;20208;-71
2022/05/04 11:28:54;;;;;;;0.00;0.00;;;19.40;99.90;;;;;;4997242;28;20259;-70
2022/05/04 11:31:23;;;;;;;0.00;0.00;;;19.40;99.90;;;;;;4991387;28;20211;-69
2022/05/04 11:33:50;;;;;;;0.00;0.00;;;19.20;99.90;;;;;;4998302;28;20200;-70
2022/05/04 11:36:22;;;;;;;0.00;0.00;;;19.20;99.90;;;;;;5008851;28;20200;-70
2022/05/04 11:38:50;;;;;;;0.00;0.00;;;19.10;99.90;;;;;;4993419;28;20225;-70
2022/05/04 11:41:18;;;;;;;0.00;0.00;;;19.20;99.90;;;;;;4991017;28;20291;-70
2022/05/04 11:43:45;;;;;;;0.00;0.00;;;19.40;99.90;;;;;;4993042;28;20677;-70
2022/05/04 11:46:13;;;;;;;0.00;0.00;;;19.40;99.90;;;;;;4996015;28;20882;-69
2022/05/04 11:48:43;;;;;;;0.00;0.00;;;19.60;99.90;;;;;;5006955;28;20200;-70
2022/05/04 11:51:12;;;;;;;0.00;0.00;;;19.70;99.90;;;;;;4990919;28;20197;-68
2022/05/04 11:53:40;;;;;;;0.00;0.00;;;19.90;99.90;;;;;;4990029;28;20224;-69
2022/05/04 11:56:08;;;;;;;0.00;0.00;;;20.10;99.90;;;;;;5008839;28;20224;-68
2022/05/04 11:58:37;;;;;;;0.00;0.00;;;20.20;99.90;;;;;;4991777;28;20316;-69
2022/05/04 12:01:06;;;;;;;0.00;0.00;;;20.00;99.90;;;;;;4993113;28;20215;-70
2022/05/04 12:03:35;;;;;;;0.00;0.00;;;;;;;;;;4988871;28;20311;-69
2022/05/04 12:06:05;;;;;;;0.00;0.00;;;;;;;;;;5008488;28;20274;-70
2022/05/04 12:08:33;;;;;;;0.00;0.00;;;;;;;;;;5007456;28;20212;-70
2022/05/04 12:11:00;;;;;;;0.00;0.00;;;;;;;;;;4994490;28;20294;-69
2022/05/04 12:13:28;;;;;;;0.00;0.00;;;;;;;;;;4990458;28;20228;-69
2022/05/04 12:15:58;;;;;;;0.00;0.00;;;;;;;;;;5008507;28;20197;-70
2022/05/04 12:18:29;;;;;;;0.00;0.00;;;;;;;;;;5006485;28;20299;-70
2022/05/04 12:20:57;;;;;;;0.00;0.00;;;;;;;;;;4992656;28;20197;-69
2022/05/04 12:23:26;;;;;;;0.00;0.00;;;;;;;;;;4990172;28;20244;-69
2022/05/04 12:25:55;;;;;;;0.00;0.00;;;;;;;;;;4991868;28;20204;-70
2022/05/04 12:28:22;;;;;;;0.00;0.00;;;;;;;;;;4990422;28;20228;-70
2022/05/04 12:33:35;;;;;;;0.00;0.00;;;;;;;;;;5005752;28;20219;-70
2022/05/04 12:36:04;;;;;;;0.00;0.00;;;;;;;;;;4990095;28;20197;-70
2022/05/04 12:38:34;;;;;;;0.00;0.00;;;;;;;;;;5005845;28;20224;-69
2022/05/04 12:41:01;;;;;;;0.00;0.00;;;;;;;;;;4986658;28;20264;-69
2022/05/04 12:43:31;;;;;;;0.00;0.00;;;;;;;;;;5000129;28;20212;-69
2022/05/04 12:45:59;;;;;;;0.00;0.00;;;;;;;;;;4990822;28;20204;-69
2022/05/04 12:48:27;;;;;;;0.00;0.00;;;;;;;;;;4988327;28;20197;-70
2022/05/04 12:50:55;;;;;;;0.00;0.00;;;;;;;;;;4995034;28;20193;-69
2022/05/04 12:53:23;;;;;;;0.00;0.00;;;;;;;;;;4988670;28;20275;-68
2022/05/04 12:58:38;;;;;;;0.00;0.00;;;;;;;;;;4989490;28;20228;-70
2022/05/04 13:01:06;;;;;;;0.00;0.00;;;;;;;;;;4995841;28;20204;-70
2022/05/04 13:03:33;;;;;;;0.00;0.00;;;;;;;;;;5001850;28;20232;-69
2022/05/04 13:06:00;;;;;;;0.00;0.00;;;;;;;;;;4993613;28;20251;-69
2022/05/04 13:08:28;;;;;;;0.00;0.00;;;;;;;;;;4988991;28;20201;-68
2022/05/04 13:10:56;;;;;;;0.00;0.00;;;;;;;;;;5000482;28;20205;-69
2022/05/04 13:13:25;;;;;;;0.00;0.00;;;;;;;;;;4989279;28;20216;-69
2022/05/04 13:15:53;;;;;;;0.00;0.00;;;;;;;;;;4994129;28;20295;-69
2022/05/04 13:18:21;;;;;;;0.00;0.00;;;;;;;;;;5000679;28;20206;-70
2022/05/04 13:20:49;;;;;;;0.00;0.00;;;;;;;;;;5004789;28;20303;-69
2022/05/04 13:23:16;;;;;;;0.00;0.00;;;;;;;;;;5007009;28;20686;-70
2022/05/04 13:25:43;;;;;;;0.00;0.00;;;;;;;;;;4991539;28;20236;-70
2022/05/04 13:28:12;;;;;;;0.00;0.00;;;;;;;;;;4996119;28;20212;-70
2022/05/04 13:30:42;;;;;;;0.00;0.00;;;;;;;;;;4992065;28;20946;-69
2022/05/04 13:33:10;;;;;;;0.00;0.00;;;;;;;;;;4989325;28;20221;-68
2022/05/04 13:35:37;;;;;;;0.00;0.00;;;;;;;;;;5006001;28;20262;-68
2022/05/04 13:38:05;;;;;;;0.00;0.00;;;;;;;;;;4988762;28;20212;-69
2022/05/04 13:40:33;;;;;;;0.00;0.00;;;;;;;;;;4986701;28;20224;-70
2022/05/04 13:43:01;;;;;;;0.00;0.00;;;;;;;;;;5007336;28;20335;-70
2022/05/04 13:45:29;;;;;;;0.00;0.00;;;;;;;;;;4993256;28;20287;-71
2022/05/04 13:47:57;;;;;;;0.00;0.00;;;;;;;;;;4985525;28;20238;-70
2022/05/04 13:53:16;;;;;;;0.00;0.00;;;;;;;;;;4988016;28;20223;-70
2022/05/04 13:55:44;;;;;;;0.00;0.00;;;;;;;;;;4986846;28;20295;-70
2022/05/04 13:58:11;;;;;;;0.00;0.00;;;;;;;;;;4989394;28;20278;-70
2022/05/04 14:00:41;;;;;;;0.00;0.00;;;;;;;;;;4993868;28;20224;-69
2022/05/04 14:03:09;;;;;;;0.00;0.00;;;;;;;;;;4983519;28;20244;-70
2022/05/04 14:05:37;;;;;;;0.00;0.00;;;;;;;;;;4981019;28;20201;-71
2022/05/04 14:08:05;;;;;;;0.00;0.00;;;;;;;;;;4994229;28;20212;-70
2022/05/04 14:10:34;;;;;;;0.00;0.00;;;;;;;;;;4989553;28;20291;-69
2022/05/04 14:13:02;;;;;;;0.00;0.00;;;;;;;;;;4989223;28;20233;-70
2022/05/04 14:15:30;;;;;;;0.00;0.00;;;;;;;;;;4987971;28;20201;-70
2022/05/04 14:17:59;;;;;;;0.00;0.00;;;;;;;;;;4994776;28;20196;-69
2022/05/04 14:20:27;;;;;;;0.00;0.00;;;;;;;;;;4995031;28;20219;-70
2022/05/04 14:22:54;;;;;;;0.00;0.00;;;;;;;;;;5004570;28;20212;-70
2022/05/04 14:25:22;;;;;;;0.00;0.00;;;;;;;;;;4983537;28;20216;-69
2022/05/04 14:27:49;;;;;;;0.00;0.00;;;;;;;;;;4985772;28;20196;-69
2022/05/04 14:30:16;;;;;;;0.00;0.00;;;;;;;;;;5003731;28;20626;-70
2022/05/04 14:32:44;;;;;;;0.00;0.00;;;;;;;;;;4986016;28;20282;-69
2022/05/04 14:35:12;;;;;;;0.00;0.00;;;;;;;;;;4997879;28;20205;-70
2022/05/04 14:37:39;;;;;;;0.00;0.00;;;;;;;;;;4982238;28;20204;-69
2022/05/04 14:40:07;;;;;;;0.00;0.00;;;;;;;;;;5006201;28;20290;-69
2022/05/04 14:42:34;;;;;;;0.00;0.00;;;;;;;;;;4989008;28;20291;-69
2022/05/04 14:45:02;;;;;;;0.00;0.00;;;;;;;;;;4989771;28;20658;-70
2022/05/04 14:47:29;;;;;;;0.00;0.00;;;;;;;;;;5002966;28;20216;-71